Time;durP1;ratioP1;P1;durP2;ratioP2;P2;SDS_P1;SDS_P2;PMS_P1;PMS_P2;Temp;Humidity;BMP_temperature;BMP_pressure;BME280_temperature;BME280_humidity;BME280_pressure;Samples;Min_cycle;Max_cycle;Signal;HPM_P1;HPM_P2
2023/04/23 00:01:26;;;;;;;5.97;3.28;;;;;;;;;;5081272;28;20852;-83
2023/04/23 00:03:54;;;;;;;3.67;3.10;;;;;;;;;;5089617;28;20385;-82
2023/04/23 00:06:21;;;;;;;5.70;3.60;;;;;;;;;;5082262;28;20378;-82
2023/04/23 00:08:47;;;;;;;4.40;3.30;;;;;;;;;;5072909;28;20737;-82
2023/04/23 00:11:13;;;;;;;4.22;3.10;;;;;;;;;;5071030;28;20415;-82
2023/04/23 00:13:39;;;;;;;3.40;3.10;;;;;;;;;;5084304;28;20405;-82
2023/04/23 00:16:06;;;;;;;3.47;3.10;;;;;;;;;;5071176;28;20447;-82
2023/04/23 00:18:32;;;;;;;3.38;3.08;;;;;;;;;;5068152;28;20415;-82
2023/04/23 00:20:58;;;;;;;3.25;3.05;;;;;;;;;;5070261;28;20404;-82
2023/04/23 00:23:24;;;;;;;3.60;3.30;;;;;;;;;;5069309;28;20873;-82
2023/04/23 00:25:51;;;;;;;3.40;3.10;;;;;;;;;;5068245;28;20407;-82
2023/04/23 00:28:17;;;;;;;4.78;4.20;;;;;;;;;;5070521;28;20383;-82
2023/04/23 00:30:43;;;;;;;4.95;4.45;;;;;;;;;;5070643;28;20404;-82
2023/04/23 00:33:09;;;;;;;4.18;3.75;;;;;;;;;;5070633;28;20447;-82
2023/04/23 00:35:35;;;;;;;4.35;3.80;;;;;;;;;;5070574;28;20383;-82
2023/04/23 00:38:01;;;;;;;4.10;3.70;;;;;;;;;;5070543;28;20437;-82
2023/04/23 00:40:27;;;;;;;4.50;4.10;;;;;;;;;;5070479;28;20383;-82
2023/04/23 00:42:53;;;;;;;5.65;4.20;;;;;;;;;;5070461;28;20383;-82
2023/04/23 00:45:19;;;;;;;4.05;3.70;;;;;;;;;;5069121;28;20396;-82
2023/04/23 00:47:46;;;;;;;3.63;3.33;;;;;;;;;;5071458;28;20880;-82
2023/04/23 00:50:12;;;;;;;5.07;3.57;;;;;;;;;;5074165;28;20495;-82
2023/04/23 00:52:39;;;;;;;3.75;3.45;;;;;;;;;;5074053;28;20802;-82
2023/04/23 00:55:07;;;;;;;3.58;3.20;;;;;;;;;;5073877;28;20405;-82
2023/04/23 00:57:33;;;;;;;3.70;3.40;;;;;;;;;;5072564;28;20907;-82
2023/04/23 00:59:59;;;;;;;3.95;3.30;;;;;;;;;;5074102;28;20857;-82
2023/04/23 01:02:26;;;;;;;3.22;3.00;;;;;;;;;;5089505;28;20385;-82
2023/04/23 01:04:53;;;;;;;3.67;3.30;;;;;;;;;;5084981;28;20411;-82
2023/04/23 01:07:21;;;;;;;4.40;3.20;;;;;;;;;;5083183;28;20383;-82
2023/04/23 01:09:49;;;;;;;3.85;3.55;;;;;;;;;;5083633;28;22336;-82
2023/04/23 01:12:15;;;;;;;3.75;3.45;;;;;;;;;;5087156;28;20377;-82
2023/04/23 01:14:41;;;;;;;4.83;3.20;;;;;;;;;;5078654;28;20456;-82
2023/04/23 01:17:08;;;;;;;3.75;3.00;;;;;;;;;;5073772;28;20372;-82
2023/04/23 01:19:34;;;;;;;3.92;3.20;;;;;;;;;;5073736;28;20374;-82
2023/04/23 01:22:00;;;;;;;4.90;3.37;;;;;;;;;;5073523;28;20884;-82
2023/04/23 01:24:30;;;;;;;4.03;3.17;;;;;;;;;;5073700;28;20426;-82
2023/04/23 01:26:57;;;;;;;3.72;3.40;;;;;;;;;;5073450;28;20807;-82
2023/04/23 01:29:25;;;;;;;4.05;3.47;;;;;;;;;;5072703;28;21448;-82
2023/04/23 01:31:52;;;;;;;3.72;3.40;;;;;;;;;;5073078;28;20443;-82
2023/04/23 01:34:20;;;;;;;3.30;3.00;;;;;;;;;;5073519;28;20384;-82
2023/04/23 01:36:47;;;;;;;4.05;3.65;;;;;;;;;;5073202;28;20455;-82
2023/04/23 01:39:13;;;;;;;3.65;3.30;;;;;;;;;;5073318;28;20376;-82
2023/04/23 01:41:39;;;;;;;3.45;3.15;;;;;;;;;;5073418;28;21066;-82
2023/04/23 01:44:06;;;;;;;3.88;3.20;;;;;;;;;;5072668;28;20429;-82
2023/04/23 01:46:32;;;;;;;4.13;3.20;;;;;;;;;;5073224;28;20881;-82
2023/04/23 01:48:58;;;;;;;3.45;3.17;;;;;;;;;;5072774;28;20473;-82
2023/04/23 01:51:25;;;;;;;4.00;3.60;;;;;;;;;;5073058;28;20443;-82
2023/04/23 01:53:51;;;;;;;3.60;3.30;;;;;;;;;;5072549;28;20488;-82
2023/04/23 01:56:20;;;;;;;4.07;3.67;;;;;;;;;;5062832;28;20395;-82
2023/04/23 01:58:46;;;;;;;4.28;3.40;;;;;;;;;;5062668;28;20406;-82
2023/04/23 02:01:12;;;;;;;4.38;3.40;;;;;;;;;;5071185;28;20372;-82
2023/04/23 02:03:38;;;;;;;3.47;3.13;;;;;;;;;;5077358;28;20387;-82
2023/04/23 02:06:04;;;;;;;4.50;3.50;;;;;;;;;;5075908;28;20383;-82
2023/04/23 02:08:30;;;;;;;3.85;3.28;;;;;;;;;;5080015;28;20380;-82
2023/04/23 02:10:56;;;;;;;3.90;3.50;;;;;;;;;;5084518;28;20458;-82
2023/04/23 02:13:22;;;;;;;4.28;3.42;;;;;;;;;;5084928;28;20799;-81
2023/04/23 02:15:48;;;;;;;3.45;3.13;;;;;;;;;;5080864;28;20380;-81
2023/04/23 02:18:15;;;;;;;3.92;3.63;;;;;;;;;;5072360;28;20395;-82
2023/04/23 02:20:41;;;;;;;3.83;3.30;;;;;;;;;;5072569;28;20857;-81
2023/04/23 02:23:07;;;;;;;3.70;3.35;;;;;;;;;;5069103;28;20385;-81
2023/04/23 02:25:33;;;;;;;4.25;3.67;;;;;;;;;;5072387;28;20382;-81
2023/04/23 02:28:04;;;;;;;3.70;3.40;;;;;;;;;;5072315;28;20387;-81
2023/04/23 02:30:30;;;;;;;3.83;3.40;;;;;;;;;;5068456;28;20403;-81
2023/04/23 02:32:56;;;;;;;3.88;3.50;;;;;;;;;;5072296;28;20380;-81
2023/04/23 02:35:22;;;;;;;3.47;3.17;;;;;;;;;;5072101;28;20800;-81
2023/04/23 02:37:49;;;;;;;4.30;3.70;;;;;;;;;;5072114;28;20391;-81
2023/04/23 02:40:15;;;;;;;4.10;3.42;;;;;;;;;;5072001;28;20472;-81
2023/04/23 02:42:41;;;;;;;3.97;3.58;;;;;;;;;;5069827;28;20410;-81
2023/04/23 02:45:07;;;;;;;4.30;3.90;;;;;;;;;;5066864;28;20879;-80
2023/04/23 02:47:33;;;;;;;5.00;4.30;;;;;;;;;;5071801;28;20391;-80
2023/04/23 02:50:02;;;;;;;3.50;3.20;;;;;;;;;;5071707;28;20415;-80
2023/04/23 02:52:28;;;;;;;4.07;3.70;;;;;;;;;;5070507;28;20446;-80
2023/04/23 02:54:53;;;;;;;4.10;3.70;;;;;;;;;;5071575;28;20460;-80
2023/04/23 02:57:20;;;;;;;4.03;3.40;;;;;;;;;;5071723;28;20383;-80
2023/04/23 02:59:46;;;;;;;3.93;3.63;;;;;;;;;;5070268;28;20880;-80
2023/04/23 03:02:12;;;;;;;3.42;3.13;;;;;;;;;;5071776;28;20383;-80
2023/04/23 03:04:38;;;;;;;3.35;2.83;;;;;;;;;;5082956;28;20381;-80
2023/04/23 03:07:04;;;;;;;3.28;3.00;;;;;;;;;;5081357;28;20395;-80
2023/04/23 03:09:30;;;;;;;2.85;2.50;;;;;;;;;;5063900;28;20378;-80
2023/04/23 03:11:56;;;;;;;4.18;2.80;;;;;;;;;;5071737;28;20546;-79
2023/04/23 03:14:22;;;;;;;2.90;2.58;;;;;;;;;;5076837;28;20397;-79
2023/04/23 03:16:48;;;;;;;2.70;2.50;;;;;;;;;;5050697;28;20377;-80
2023/04/23 03:19:15;;;;;;;3.70;3.00;;;;;;;;;;5048564;28;20396;-80
2023/04/23 03:21:41;;;;;;;3.37;3.07;;;;;;;;;;5056964;28;20417;-80
2023/04/23 03:24:07;;;;;;;3.70;3.40;;;;;;;;;;5050835;28;20502;-81
2023/04/23 03:26:33;;;;;;;4.40;3.70;;;;;;;;;;5051648;28;20381;-80
2023/04/23 03:28:59;;;;;;;5.13;4.60;;;;;;;;;;5061483;28;20421;-80
2023/04/23 03:31:25;;;;;;;4.55;4.15;;;;;;;;;;5067773;28;20500;-80
2023/04/23 03:33:51;;;;;;;3.90;3.53;;;;;;;;;;5069703;28;20403;-80
2023/04/23 03:36:17;;;;;;;3.33;3.03;;;;;;;;;;5059005;28;20378;-80
2023/04/23 03:38:43;;;;;;;2.90;2.70;;;;;;;;;;5050156;28;20761;-80
2023/04/23 03:41:09;;;;;;;2.90;2.20;;;;;;;;;;5058596;28;20375;-80
2023/04/23 03:43:35;;;;;;;2.95;2.63;;;;;;;;;;5068725;28;20412;-80
2023/04/23 03:46:01;;;;;;;3.42;2.40;;;;;;;;;;5050809;28;20948;-80
2023/04/23 03:48:27;;;;;;;3.70;2.30;;;;;;;;;;5066386;28;20410;-81
2023/04/23 03:50:53;;;;;;;2.47;2.28;;;;;;;;;;5051732;28;20861;-81
2023/04/23 03:53:20;;;;;;;2.35;2.15;;;;;;;;;;5064819;28;20453;-79
2023/04/23 03:55:46;;;;;;;2.55;2.35;;;;;;;;;;5055409;28;20371;-80
2023/04/23 03:58:12;;;;;;;3.22;2.42;;;;;;;;;;5052207;28;20382;-80
2023/04/23 04:00:41;;;;;;;2.53;2.33;;;;;;;;;;5050805;28;20867;-81
2023/04/23 04:03:07;;;;;;;2.42;2.22;;;;;;;;;;5065578;28;20381;-80
2023/04/23 04:05:34;;;;;;;2.47;2.10;;;;;;;;;;5069177;28;20437;-79
2023/04/23 04:08:00;;;;;;;2.47;2.27;;;;;;;;;;5083211;28;20451;-79
2023/04/23 04:10:26;;;;;;;2.22;1.95;;;;;;;;;;5079720;28;20399;-80
2023/04/23 04:12:54;;;;;;;2.45;2.25;;;;;;;;;;5074807;28;20371;-79
2023/04/23 04:15:20;;;;;;;2.70;2.50;;;;;;;;;;5083726;28;20714;-80
2023/04/23 04:17:46;;;;;;;2.45;2.25;;;;;;;;;;5072375;28;20882;-79
2023/04/23 04:20:12;;;;;;;2.58;2.38;;;;;;;;;;5070856;28;20383;-80
2023/04/23 04:22:38;;;;;;;8.73;8.03;;;;;;;;;;5073477;28;20845;-79
2023/04/23 04:25:04;;;;;;;3.10;2.90;;;;;;;;;;5074637;28;20488;-80
2023/04/23 04:27:33;;;;;;;2.70;2.50;;;;;;;;;;5074694;28;20428;-80
2023/04/23 04:30:04;;;;;;;2.33;2.13;;;;;;;;;;5074534;28;20407;-80
2023/04/23 04:32:30;;;;;;;2.38;2.17;;;;;;;;;;5074424;28;20486;-80
2023/04/23 04:34:56;;;;;;;2.38;2.17;;;;;;;;;;5072312;28;20383;-80
2023/04/23 04:37:22;;;;;;;2.30;2.10;;;;;;;;;;5073232;28;20861;-80
2023/04/23 04:39:48;;;;;;;2.65;2.13;;;;;;;;;;5074305;28;20432;-79
2023/04/23 04:42:15;;;;;;;2.33;2.13;;;;;;;;;;5074415;28;20383;-79
2023/04/23 04:44:42;;;;;;;1.97;1.80;;;;;;;;;;5068594;28;20380;-80
2023/04/23 04:47:08;;;;;;;1.40;1.30;;;;;;;;;;5074298;28;20415;-79
2023/04/23 04:49:34;;;;;;;1.30;1.20;;;;;;;;;;5074138;28;20396;-80
2023/04/23 04:52:01;;;;;;;1.10;0.98;;;;;;;;;;5074140;28;20399;-79
2023/04/23 04:54:27;;;;;;;2.00;1.10;;;;;;;;;;5074343;28;20476;-80
2023/04/23 04:56:53;;;;;;;0.90;0.90;;;;;;;;;;5074047;28;20375;-79
2023/04/23 04:59:19;;;;;;;1.48;1.10;;;;;;;;;;5073954;28;20919;-80
2023/04/23 05:01:45;;;;;;;2.72;1.30;;;;;;;;;;5074124;28;20384;-80
2023/04/23 05:04:11;;;;;;;1.20;1.10;;;;;;;;;;5075962;28;20377;-80
2023/04/23 05:06:37;;;;;;;1.30;1.20;;;;;;;;;;5086005;28;20370;-80
2023/04/23 05:09:03;;;;;;;1.25;1.00;;;;;;;;;;5085934;28;20732;-80
2023/04/23 05:11:29;;;;;;;1.05;0.98;;;;;;;;;;5084507;28;20421;-79
2023/04/23 05:13:56;;;;;;;1.35;1.00;;;;;;;;;;5073681;28;20426;-80
2023/04/23 05:16:23;;;;;;;1.43;0.90;;;;;;;;;;5073681;28;20412;-79
2023/04/23 05:18:49;;;;;;;0.73;0.70;;;;;;;;;;5074012;28;20848;-79
2023/04/23 05:21:15;;;;;;;0.80;0.80;;;;;;;;;;5073553;28;20463;-80
2023/04/23 05:23:41;;;;;;;1.30;1.00;;;;;;;;;;5073059;28;20380;-79
2023/04/23 05:26:07;;;;;;;2.05;1.27;;;;;;;;;;5072701;28;20433;-81
2023/04/23 05:28:33;;;;;;;1.67;1.58;;;;;;;;;;5072228;28;20441;-80
2023/04/23 05:30:59;;;;;;;2.15;1.98;;;;;;;;;;5072964;28;20402;-80
2023/04/23 05:33:25;;;;;;;2.22;2.03;;;;;;;;;;5072068;28;20383;-80
2023/04/23 05:35:51;;;;;;;3.60;1.98;;;;;;;;;;5073033;28;20375;-80
2023/04/23 05:38:17;;;;;;;2.20;1.75;;;;;;;;;;5072806;28;20718;-80
2023/04/23 05:40:43;;;;;;;2.17;1.60;;;;;;;;;;5072989;28;20395;-80
2023/04/23 05:43:09;;;;;;;1.50;1.40;;;;;;;;;;5066695;28;20388;-79
2023/04/23 05:45:35;;;;;;;1.65;1.33;;;;;;;;;;5071323;28;20384;-79
2023/04/23 05:48:01;;;;;;;1.52;1.42;;;;;;;;;;5071250;28;21045;-80
2023/04/23 05:50:27;;;;;;;1.63;1.20;;;;;;;;;;5072743;28;20456;-79
2023/04/23 05:52:53;;;;;;;1.10;1.00;;;;;;;;;;5072228;28;20380;-80
2023/04/23 05:55:20;;;;;;;1.70;1.17;;;;;;;;;;5061111;28;20373;-80
2023/04/23 05:57:46;;;;;;;1.10;1.00;;;;;;;;;;5058121;28;20755;-80
2023/04/23 06:00:12;;;;;;;1.83;1.10;;;;;;;;;;5053051;28;20396;-80
2023/04/23 06:02:39;;;;;;;1.38;1.27;;;;;;;;;;5057579;28;20389;-79
2023/04/23 06:05:06;;;;;;;1.17;1.07;;;;;;;;;;5064551;28;20400;-80
2023/04/23 06:07:32;;;;;;;1.42;1.08;;;;;;;;;;5072653;28;20954;-79
2023/04/23 06:09:58;;;;;;;1.27;1.05;;;;;;;;;;5077898;28;21165;-81
2023/04/23 06:12:24;;;;;;;1.38;1.25;;;;;;;;;;5072241;28;20382;-80
2023/04/23 06:14:52;;;;;;;1.10;0.98;;;;;;;;;;5056188;28;20457;-80
2023/04/23 06:17:18;;;;;;;1.40;1.25;;;;;;;;;;5056427;28;20467;-79
2023/04/23 06:19:44;;;;;;;1.25;1.02;;;;;;;;;;5051173;28;20382;-79
2023/04/23 06:22:10;;;;;;;1.70;1.00;;;;;;;;;;5066032;28;20861;-80
2023/04/23 06:24:36;;;;;;;1.10;1.00;;;;;;;;;;5068733;28;20798;-80
2023/04/23 06:27:02;;;;;;;2.22;1.38;;;;;;;;;;5057348;28;20454;-79
2023/04/23 06:29:28;;;;;;;1.25;1.13;;;;;;;;;;5051905;28;20381;-79
2023/04/23 06:31:55;;;;;;;1.80;0.90;;;;;;;;;;5052989;28;20407;-79
2023/04/23 06:34:21;;;;;;;1.75;0.90;;;;;;;;;;5051147;28;20468;-79
2023/04/23 06:36:47;;;;;;;1.25;1.08;;;;;;;;;;5050890;28;20421;-79
2023/04/23 06:39:13;;;;;;;1.90;1.80;;;;;;;;;;5050160;28;20466;-79
2023/04/23 06:41:39;;;;;;;1.70;1.00;;;;;;;;;;5049885;28;20389;-79
2023/04/23 06:44:05;;;;;;;1.00;0.90;;;;;;;;;;5056819;28;20386;-79
2023/04/23 06:46:31;;;;;;;0.88;0.88;;;;;;;;;;5051583;28;20488;-79
2023/04/23 06:48:57;;;;;;;1.30;1.17;;;;;;;;;;5050909;28;20881;-79
2023/04/23 06:51:26;;;;;;;1.58;1.48;;;;;;;;;;5050473;28;20427;-80
2023/04/23 06:53:52;;;;;;;2.17;1.70;;;;;;;;;;5066139;28;20458;-80
2023/04/23 06:56:18;;;;;;;1.38;1.27;;;;;;;;;;5070440;28;20386;-79
2023/04/23 06:58:44;;;;;;;1.10;1.00;;;;;;;;;;5066740;28;20603;-80
2023/04/23 07:01:10;;;;;;;1.42;1.10;;;;;;;;;;5066207;28;20383;-80
2023/04/23 07:03:36;;;;;;;1.70;1.58;;;;;;;;;;5070437;28;20437;-80
2023/04/23 07:06:02;;;;;;;1.45;1.30;;;;;;;;;;5075122;28;20378;-80
2023/04/23 07:08:28;;;;;;;1.65;1.40;;;;;;;;;;5078226;28;20376;-79
2023/04/23 07:10:54;;;;;;;1.00;0.90;;;;;;;;;;5076802;28;20397;-79
2023/04/23 07:13:20;;;;;;;1.50;1.40;;;;;;;;;;5076502;28;20814;-79
2023/04/23 07:15:47;;;;;;;1.10;0.90;;;;;;;;;;5075403;28;20384;-79
2023/04/23 07:18:13;;;;;;;1.20;0.90;;;;;;;;;;5070457;28;20853;-79
2023/04/23 07:20:39;;;;;;;1.58;1.10;;;;;;;;;;5063180;28;20399;-78
2023/04/23 07:23:05;;;;;;;2.05;1.10;;;;;;;;;;5067880;28;20399;-78
2023/04/23 07:25:31;;;;;;;1.20;1.10;;;;;;;;;;5050977;28;20472;-79
2023/04/23 07:27:57;;;;;;;1.50;1.40;;;;;;;;;;5063032;28;20387;-79
2023/04/23 07:30:24;;;;;;;1.55;1.20;;;;;;;;;;5071285;28;20407;-78
2023/04/23 07:32:50;;;;;;;1.30;1.10;;;;;;;;;;5071456;28;20436;-79
2023/04/23 07:35:16;;;;;;;1.17;1.10;;;;;;;;;;5071197;28;20371;-79
2023/04/23 07:37:42;;;;;;;1.30;1.20;;;;;;;;;;5060013;28;20392;-79
2023/04/23 07:40:09;;;;;;;1.33;1.23;;;;;;;;;;5052676;28;20762;-80
2023/04/23 07:42:35;;;;;;;1.42;1.20;;;;;;;;;;5051083;28;20909;-79
2023/04/23 07:45:01;;;;;;;1.30;1.20;;;;;;;;;;5060753;28;20866;-79
2023/04/23 07:47:26;;;;;;;1.40;1.30;;;;;;;;;;5052624;28;20386;-80
2023/04/23 07:49:53;;;;;;;1.30;1.20;;;;;;;;;;5050294;28;20898;-82
2023/04/23 07:52:18;;;;;;;1.38;1.27;;;;;;;;;;5068448;28;20470;-80
2023/04/23 07:54:45;;;;;;;1.08;0.98;;;;;;;;;;5071197;28;20814;-79
2023/04/23 07:57:11;;;;;;;2.07;1.47;;;;;;;;;;5075052;28;20864;-79
2023/04/23 07:59:40;;;;;;;1.48;1.08;;;;;;;;;;5075452;28;20745;-82
2023/04/23 08:02:06;;;;;;;1.10;1.00;;;;;;;;;;5067022;28;20380;-80
2023/04/23 08:04:32;;;;;;;1.30;1.20;;;;;;;;;;5077436;28;20376;-80
2023/04/23 08:06:58;;;;;;;1.55;1.45;;;;;;;;;;5081662;28;20386;-80
2023/04/23 08:09:25;;;;;;;1.30;1.20;;;;;;;;;;5092887;28;20413;-80
2023/04/23 08:11:51;;;;;;;1.42;1.33;;;;;;;;;;5085316;28;20760;-79
2023/04/23 08:14:18;;;;;;;1.90;1.80;;;;;;;;;;5074993;28;20457;-78
2023/04/23 08:16:44;;;;;;;2.10;1.90;;;;;;;;;;5061440;28;20869;-79
2023/04/23 08:19:10;;;;;;;2.10;2.00;;;;;;;;;;5061047;28;20377;-80
2023/04/23 08:21:37;;;;;;;3.28;3.00;;;;;;;;;;5073642;28;20379;-79
2023/04/23 08:24:03;;;;;;;3.50;3.28;;;;;;;;;;5074623;28;20433;-79
2023/04/23 08:26:29;;;;;;;3.20;2.90;;;;;;;;;;5076139;28;20387;-79
2023/04/23 08:28:56;;;;;;;3.55;3.25;;;;;;;;;;5077492;28;20388;-80
2023/04/23 08:31:22;;;;;;;3.63;3.33;;;;;;;;;;5077354;28;20764;-79
2023/04/23 08:33:48;;;;;;;3.85;3.38;;;;;;;;;;5077420;28;20382;-80
2023/04/23 08:36:14;;;;;;;3.10;2.80;;;;;;;;;;5077403;28;20367;-80
2023/04/23 08:38:40;;;;;;;4.10;3.60;;;;;;;;;;5077244;28;20372;-80
2023/04/23 08:41:09;;;;;;;4.40;3.83;;;;;;;;;;5076029;28;20392;-79
2023/04/23 08:43:41;;;;;;;4.03;3.67;;;;;;;;;;5072926;28;20391;-80
2023/04/23 08:46:09;;;;;;;4.13;3.83;;;;;;;;;;5077275;28;20925;-80
2023/04/23 08:48:35;;;;;;;4.47;4.03;;;;;;;;;;5076871;28;20518;-80
2023/04/23 08:51:02;;;;;;;4.35;3.95;;;;;;;;;;5077209;28;20502;-80
2023/04/23 08:53:28;;;;;;;4.50;4.10;;;;;;;;;;5070907;28;20431;-80
2023/04/23 08:55:55;;;;;;;4.45;4.05;;;;;;;;;;5067073;28;20384;-80
2023/04/23 08:58:21;;;;;;;4.57;4.18;;;;;;;;;;5076053;28;20378;-80
2023/04/23 09:00:48;;;;;;;4.50;4.20;;;;;;;;;;5077175;28;20398;-80
2023/04/23 09:03:16;;;;;;;4.38;3.97;;;;;;;;;;5072255;28;20869;-79
2023/04/23 09:05:43;;;;;;;3.47;3.25;;;;;;;;;;5065887;28;20395;-80
2023/04/23 09:08:09;;;;;;;3.60;3.30;;;;;;;;;;5057659;28;20384;-79
2023/04/23 09:10:37;;;;;;;3.40;3.10;;;;;;;;;;5061929;28;20445;-79
2023/04/23 09:13:03;;;;;;;3.73;2.67;;;;;;;;;;5067193;28;20390;-80
2023/04/23 09:15:29;;;;;;;2.60;2.40;;;;;;;;;;5063357;28;20439;-79
2023/04/23 09:17:55;;;;;;;3.00;2.70;;;;;;;;;;5067272;28;20833;-80
2023/04/23 09:20:21;;;;;;;2.90;2.70;;;;;;;;;;5054477;28;20746;-79
2023/04/23 09:22:51;;;;;;;3.25;2.72;;;;;;;;;;5059403;28;20388;-79
2023/04/23 09:25:21;;;;;;;2.50;2.30;;;;;;;;;;5073612;28;20383;-79
2023/04/23 09:27:49;;;;;;;2.80;2.60;;;;;;;;;;5073259;28;20387;-79
2023/04/23 09:30:15;;;;;;;3.15;2.78;;;;;;;;;;5072149;28;20418;-79
2023/04/23 09:32:42;;;;;;;3.50;2.40;;;;;;;;;;5072608;28;20390;-80
2023/04/23 09:35:09;;;;;;;2.20;2.00;;;;;;;;;;5073409;28;20372;-80
2023/04/23 09:37:35;;;;;;;1.95;1.65;;;;;;;;;;5073470;28;20437;-80
2023/04/23 09:40:03;;;;;;;2.25;1.70;;;;;;;;;;5059372;28;20385;-80
2023/04/23 09:42:30;;;;;;;1.90;1.80;;;;;;;;;;5064882;28;20860;-81
2023/04/23 09:45:06;;;;;;;2.97;2.35;;;;;;;;;;5071647;28;20384;-81
2023/04/23 09:47:38;;;;;;;2.17;1.90;;;;;;;;;;5072642;28;20372;-81
2023/04/23 10:35:40;;;;;;;3.13;1.80;;;;;;;;;;5084205;28;20360;-78
2023/04/23 10:38:06;;;;;;;2.25;1.75;;;;;;;;;;5068047;28;20463;-78
2023/04/23 10:40:33;;;;;;;5.63;3.30;;;;;;;;;;5067977;28;20461;-79
2023/04/23 10:42:59;;;;;;;1.73;1.60;;;;;;;;;;5063379;28;20370;-78
2023/04/23 10:45:29;;;;;;;3.15;1.77;;;;;;;;;;5068386;28;20376;-78
2023/04/23 10:47:55;;;;;;;1.83;1.60;;;;;;;;;;5068456;28;20381;-79
2023/04/23 10:50:21;;;;;;;2.05;1.50;;;;;;;;;;5068241;28;20423;-78
2023/04/23 10:52:52;;;;;;;2.10;1.63;;;;;;;;;;5068367;28;20435;-79
2023/04/23 10:55:19;;;;;;;2.03;1.80;;;;;;;;;;5067860;28;20409;-79
2023/04/23 10:58:00;;;;;;;2.80;1.80;;;;;;;;;;5058667;28;20739;-79
2023/04/23 11:00:27;;;;;;;2.22;1.60;;;;;;;;;;5067729;28;20388;-78
2023/04/23 11:02:53;;;;;;;2.55;1.67;;;;;;;;;;5068162;28;20715;-79
2023/04/23 11:05:21;;;;;;;1.80;1.60;;;;;;;;;;5067810;28;20380;-79
2023/04/23 11:08:06;;;;;;;1.80;1.70;;;;;;;;;;5068087;28;20385;-80
2023/04/23 11:10:32;;;;;;;2.13;1.90;;;;;;;;;;5067910;28;20387;-79
2023/04/23 11:13:18;;;;;;;1.90;1.70;;;;;;;;;;5066215;28;20391;-79
2023/04/23 11:15:46;;;;;;;2.85;1.85;;;;;;;;;;5067477;28;20434;-79
2023/04/23 11:18:12;;;;;;;3.03;1.60;;;;;;;;;;5066539;28;20384;-80
2023/04/23 11:20:38;;;;;;;2.30;1.52;;;;;;;;;;5066346;28;20381;-79
2023/04/23 11:23:06;;;;;;;2.10;1.65;;;;;;;;;;5067679;28;20434;-79
2023/04/23 11:25:32;;;;;;;2.03;1.60;;;;;;;;;;5066950;28;20388;-79
2023/04/23 11:27:58;;;;;;;1.77;1.40;;;;;;;;;;5067602;28;20377;-79
2023/04/23 11:30:28;;;;;;;1.70;1.33;;;;;;;;;;5067472;28;20707;-80
2023/04/23 11:32:55;;;;;;;1.47;1.30;;;;;;;;;;5067350;28;20380;-79
2023/04/23 11:35:23;;;;;;;2.28;1.52;;;;;;;;;;5085317;28;21050;-81
2023/04/23 11:37:49;;;;;;;1.60;1.50;;;;;;;;;;5087013;28;20401;-80
2023/04/23 11:40:19;;;;;;;4.00;1.70;;;;;;;;;;5086941;28;20387;-80
2023/04/23 11:42:49;;;;;;;1.48;1.38;;;;;;;;;;5085465;28;20399;-80
2023/04/23 11:45:19;;;;;;;1.77;1.58;;;;;;;;;;5083874;28;20462;-80
2023/04/23 11:47:56;;;;;;;3.15;1.50;;;;;;;;;;5073933;28;20532;-80
2023/04/23 11:50:23;;;;;;;1.48;1.30;;;;;;;;;;5073986;28;20391;-80
2023/04/23 11:52:50;;;;;;;2.05;1.40;;;;;;;;;;5073790;28;20391;-81
2023/04/23 11:55:16;;;;;;;1.60;1.40;;;;;;;;;;5073750;28;20427;-80
2023/04/23 11:57:43;;;;;;;2.13;1.60;;;;;;;;;;5073376;28;20475;-80
2023/04/23 12:00:13;;;;;;;2.03;1.30;;;;;;;;;;5073451;28;20376;-80
2023/04/23 12:02:49;;;;;;;1.52;1.10;;;;;;;;;;5073750;28;20419;-80
2023/04/23 12:05:15;;;;;;;1.45;1.00;;;;;;;;;;5070414;28;20853;-80
2023/04/23 12:07:42;;;;;;;1.38;1.10;;;;;;;;;;5073490;28;20475;-80
2023/04/23 12:10:08;;;;;;;1.95;1.10;;;;;;;;;;5074559;28;20375;-80
2023/04/23 12:12:37;;;;;;;1.75;1.15;;;;;;;;;;5073337;28;20875;-80
2023/04/23 12:15:04;;;;;;;1.80;1.30;;;;;;;;;;5073465;28;20793;-80
2023/04/23 12:17:30;;;;;;;1.65;1.27;;;;;;;;;;5073801;28;20467;-80
2023/04/23 12:19:56;;;;;;;2.78;1.40;;;;;;;;;;5073320;28;20398;-80
2023/04/23 12:22:26;;;;;;;2.35;1.58;;;;;;;;;;5069979;28;20895;-80
2023/04/23 12:24:55;;;;;;;1.95;1.30;;;;;;;;;;5073295;28;20376;-80
2023/04/23 12:27:22;;;;;;;2.60;1.23;;;;;;;;;;5073163;28;20450;-80
2023/04/23 12:29:49;;;;;;;1.73;1.10;;;;;;;;;;5073296;28;20379;-80
2023/04/23 12:32:17;;;;;;;1.85;1.23;;;;;;;;;;5071781;28;20817;-79
2023/04/23 12:34:54;;;;;;;1.33;1.10;;;;;;;;;;5072667;28;20411;-80
2023/04/23 12:37:26;;;;;;;1.80;1.00;;;;;;;;;;5073112;28;20383;-80
2023/04/23 12:39:54;;;;;;;2.60;1.20;;;;;;;;;;5072933;28;20388;-80
2023/04/23 12:42:20;;;;;;;2.42;1.23;;;;;;;;;;5073023;28;20387;-80
2023/04/23 12:44:46;;;;;;;1.67;1.17;;;;;;;;;;5072769;28;20392;-80
2023/04/23 12:47:14;;;;;;;1.52;1.30;;;;;;;;;;5072934;28;20466;-80
2023/04/23 12:49:41;;;;;;;2.08;1.27;;;;;;;;;;5072739;28;20821;-80
2023/04/23 12:52:07;;;;;;;1.85;1.23;;;;;;;;;;5072842;28;20849;-80
2023/04/23 12:54:36;;;;;;;2.00;1.40;;;;;;;;;;5072447;28;20438;-80
2023/04/23 12:57:02;;;;;;;1.60;1.20;;;;;;;;;;5071882;28;20413;-80
2023/04/23 12:59:28;;;;;;;3.83;3.53;;;;;;;;;;5072466;28;20386;-80
2023/04/23 13:01:54;;;;;;;2.17;1.88;;;;;;;;;;5072429;28;20384;-80
2023/04/23 13:04:20;;;;;;;1.90;1.50;;;;;;;;;;5072452;28;20407;-80
2023/04/23 13:06:46;;;;;;;2.13;1.50;;;;;;;;;;5072345;28;20415;-80
2023/04/23 13:09:12;;;;;;;7.32;5.05;;;;;;;;;;5072371;28;20379;-80
2023/04/23 13:11:39;;;;;;;2.08;1.40;;;;;;;;;;5072214;28;20387;-80
2023/04/23 13:14:05;;;;;;;2.35;1.88;;;;;;;;;;5072172;28;20553;-80
2023/04/23 13:16:31;;;;;;;1.80;1.00;;;;;;;;;;5072201;28;20384;-80
2023/04/23 13:18:58;;;;;;;1.30;1.05;;;;;;;;;;5071988;28;20372;-80
2023/04/23 13:21:24;;;;;;;1.48;1.02;;;;;;;;;;5071899;28;20391;-80
2023/04/23 13:23:50;;;;;;;1.57;1.20;;;;;;;;;;5072024;28;20940;-80
2023/04/23 13:26:16;;;;;;;1.67;1.30;;;;;;;;;;5071981;28;20772;-80
2023/04/23 13:28:42;;;;;;;1.60;1.10;;;;;;;;;;5071868;28;20425;-80
2023/04/23 13:31:10;;;;;;;1.30;1.10;;;;;;;;;;5072016;28;20388;-80
2023/04/23 13:33:36;;;;;;;1.52;1.10;;;;;;;;;;5071495;28;20412;-80
2023/04/23 13:36:02;;;;;;;2.13;1.30;;;;;;;;;;5071707;28;20384;-80
2023/04/23 13:38:28;;;;;;;2.38;1.20;;;;;;;;;;5071910;28;20437;-80
2023/04/23 13:40:54;;;;;;;2.10;1.07;;;;;;;;;;5071736;28;20448;-80
2023/04/23 13:43:20;;;;;;;1.53;1.17;;;;;;;;;;5071808;28;20929;-80
2023/04/23 13:45:46;;;;;;;2.47;1.25;;;;;;;;;;5071658;28;20380;-80
2023/04/23 13:48:16;;;;;;;1.52;0.90;;;;;;;;;;5071821;28;20381;-80
2023/04/23 13:50:43;;;;;;;1.45;1.10;;;;;;;;;;5071589;28;20371;-80
2023/04/23 13:53:09;;;;;;;1.67;1.15;;;;;;;;;;5071492;28;20390;-80
2023/04/23 13:55:35;;;;;;;1.63;1.02;;;;;;;;;;5071442;28;20525;-80
2023/04/23 13:58:02;;;;;;;3.15;1.45;;;;;;;;;;5069908;28;20379;-80
2023/04/23 14:00:29;;;;;;;1.75;1.20;;;;;;;;;;5066167;28;20372;-80
2023/04/23 14:02:55;;;;;;;2.45;1.30;;;;;;;;;;5071269;28;20467;-80
2023/04/23 14:05:21;;;;;;;2.07;1.20;;;;;;;;;;5071154;28;20472;-80
2023/04/23 14:07:47;;;;;;;1.60;1.20;;;;;;;;;;5071518;28;20433;-80
2023/04/23 14:10:14;;;;;;;1.55;1.00;;;;;;;;;;5071003;28;20419;-80
2023/04/23 14:12:40;;;;;;;1.40;1.13;;;;;;;;;;5071136;28;20380;-80
2023/04/23 14:15:07;;;;;;;1.85;1.20;;;;;;;;;;5071217;28;20912;-80
2023/04/23 14:17:33;;;;;;;1.95;1.35;;;;;;;;;;5068793;28;20856;-80
2023/04/23 14:19:59;;;;;;;2.23;1.43;;;;;;;;;;5071244;28;20472;-80
2023/04/23 14:22:25;;;;;;;1.55;1.38;;;;;;;;;;5057363;28;20952;-80
2023/04/23 14:24:56;;;;;;;1.20;1.10;;;;;;;;;;5071107;28;20881;-80
2023/04/23 14:27:22;;;;;;;2.22;1.08;;;;;;;;;;5071127;28;20462;-80
2023/04/23 14:29:56;;;;;;;1.63;1.02;;;;;;;;;;5071226;28;20371;-80
2023/04/23 14:32:22;;;;;;;2.22;1.20;;;;;;;;;;5071149;28;20433;-80
2023/04/23 14:34:48;;;;;;;1.52;1.10;;;;;;;;;;5057064;28;20407;-80
2023/04/23 14:37:16;;;;;;;2.80;1.13;;;;;;;;;;5071149;28;20853;-80
2023/04/23 14:39:42;;;;;;;1.63;1.13;;;;;;;;;;5069713;28;20391;-80
2023/04/23 14:42:08;;;;;;;2.88;1.23;;;;;;;;;;5071298;28;20474;-80
2023/04/23 14:44:34;;;;;;;2.10;1.40;;;;;;;;;;5070765;28;20741;-80
2023/04/23 14:47:00;;;;;;;1.98;1.25;;;;;;;;;;5070977;28;20410;-80
2023/04/23 14:49:26;;;;;;;2.72;1.20;;;;;;;;;;5070967;28;20845;-80
2023/04/23 14:51:53;;;;;;;2.63;1.37;;;;;;;;;;5071023;28;20737;-80
2023/04/23 14:54:19;;;;;;;1.67;1.27;;;;;;;;;;5070915;28;20463;-80
2023/04/23 14:56:45;;;;;;;2.92;1.90;;;;;;;;;;5070866;28;20383;-80
2023/04/23 14:59:11;;;;;;;3.33;1.47;;;;;;;;;;5070990;28;20496;-80
2023/04/23 15:01:37;;;;;;;1.92;1.40;;;;;;;;;;5070757;28;20384;-80
2023/04/23 15:04:04;;;;;;;1.70;1.27;;;;;;;;;;5071024;28;20395;-80
2023/04/23 15:06:30;;;;;;;2.05;1.20;;;;;;;;;;5070821;28;20390;-81
2023/04/23 15:08:56;;;;;;;1.57;1.47;;;;;;;;;;5070875;28;20376;-80
2023/04/23 15:11:22;;;;;;;3.15;1.30;;;;;;;;;;5070778;28;20441;-81
2023/04/23 15:13:48;;;;;;;2.67;1.60;;;;;;;;;;5070694;28;20391;-81
2023/04/23 15:16:40;;;;;;;2.47;1.50;;;;;;;;;;5070435;28;20392;-80
2023/04/23 15:19:08;;;;;;;2.30;1.55;;;;;;;;;;5065151;28;20876;-80
2023/04/23 15:21:34;;;;;;;2.95;1.35;;;;;;;;;;5072968;28;20391;-80
2023/04/23 15:24:00;;;;;;;2.25;1.45;;;;;;;;;;5074149;28;20486;-80
2023/04/23 15:26:26;;;;;;;1.40;1.30;;;;;;;;;;5074462;28;20451;-80